createdAt,value
2022-10-21T00:00:31.190Z,99003.63
2022-10-21T00:01:35.008Z,99004.47
2022-10-21T00:02:37.938Z,99001.06
2022-10-21T00:03:43.475Z,99005.28
2022-10-21T00:04:46.161Z,99001.06
2022-10-21T00:05:50.327Z,99001.91
2022-10-21T00:06:53.068Z,98996.78
2022-10-21T00:07:56.913Z,99000.09
2022-10-21T00:08:59.665Z,98989.03
2022-10-21T00:10:03.541Z,98989.03
2022-10-21T00:11:07.601Z,98983.91
2022-10-21T00:12:11.444Z,98982.16
2022-10-21T00:13:14.188Z,98985.56
2022-10-21T00:14:17.989Z,98986.47
2022-10-21T00:15:20.781Z,98992.53
2022-10-21T00:16:24.519Z,98986.59
2022-10-21T00:17:27.208Z,98981.53
2022-10-21T00:18:31.305Z,98990.00
2022-10-21T00:19:35.440Z,98994.16
2022-10-21T00:20:41.934Z,98988.94
2022-10-21T00:21:44.594Z,98988.03
2022-10-21T00:22:48.549Z,98990.53
2022-10-21T00:23:51.458Z,98986.31
2022-10-21T00:24:55.200Z,98990.59
2022-10-21T00:25:58.148Z,98982.84
2022-10-21T00:27:02.997Z,98981.97
2022-10-21T00:28:05.714Z,98990.50
2022-10-21T00:29:09.574Z,98990.50
2022-10-21T00:30:13.279Z,98986.22
2022-10-21T00:31:17.858Z,98978.56
2022-10-21T00:32:20.658Z,98987.94
2022-10-21T00:33:25.180Z,98978.53
2022-10-21T00:34:30.734Z,98979.41
2022-10-21T00:35:36.798Z,98990.50
2022-10-21T00:36:39.579Z,98981.97
2022-10-21T00:37:43.280Z,98990.59
2022-10-21T00:38:47.421Z,98989.81
2022-10-21T00:39:51.199Z,98991.53
2022-10-21T00:40:53.975Z,98986.38
2022-10-21T00:41:57.758Z,98991.44
2022-10-21T00:43:00.819Z,98987.16
2022-10-21T00:44:06.514Z,98981.13
2022-10-21T00:45:20.258Z,98979.44
2022-10-21T00:46:37.956Z,98989.03
2022-10-21T00:47:45.130Z,98986.56
2022-10-21T00:48:55.470Z,98987.44
2022-10-21T00:50:01.508Z,98991.69
2022-10-21T00:51:08.900Z,98991.63
2022-10-21T00:52:13.941Z,98989.91
2022-10-21T00:53:18.359Z,98992.41
2022-10-21T00:54:22.349Z,98980.50
2022-10-21T00:55:27.662Z,98983.91
2022-10-21T00:56:33.560Z,98982.22
2022-10-21T00:57:37.627Z,98985.63
2022-10-21T00:58:40.605Z,98983.06
2022-10-21T00:59:53.373Z,98981.41
2022-10-21T01:00:57.155Z,98984.00
2022-10-21T01:02:00.950Z,98977.19
2022-10-21T01:03:04.355Z,98982.38
2022-10-21T01:04:08.168Z,98989.31
2022-10-21T01:05:11.887Z,98982.56
2022-10-21T01:06:17.450Z,98990.25
2022-10-21T01:07:20.378Z,98983.47
2022-10-21T01:08:24.579Z,98983.50
2022-10-21T01:09:27.621Z,98989.50
2022-10-21T01:10:32.159Z,98992.09
2022-10-21T01:11:39.659Z,98986.19
2022-10-21T01:12:51.449Z,98988.75
2022-10-21T01:14:13.760Z,98984.50
2022-10-21T01:15:20.341Z,98979.38
2022-10-21T01:16:31.959Z,98976.75
2022-10-21T01:17:45.394Z,98978.44
2022-10-21T01:18:53.778Z,98991.31
2022-10-21T01:20:21.672Z,98985.34
2022-10-21T01:21:33.620Z,98984.50
2022-10-21T01:23:10.819Z,98983.56
2022-10-21T01:24:47.798Z,98975.88
2022-10-21T01:26:22.540Z,98978.38
2022-10-21T01:27:39.292Z,98968.94
2022-10-21T01:28:52.351Z,98974.06
2022-10-21T01:30:21.609Z,98969.84
2022-10-21T01:31:31.249Z,98968.25
2022-10-21T01:32:46.234Z,98973.38
2022-10-21T01:33:55.087Z,98976.75
2022-10-21T01:35:03.153Z,98976.75
2022-10-21T01:36:13.373Z,98973.31
2022-10-21T01:37:21.161Z,98974.19
2022-10-21T01:38:30.407Z,98967.34
2022-10-21T01:39:37.948Z,98962.13
2022-10-21T01:40:45.939Z,98954.41
2022-10-21T01:41:52.860Z,98953.44
2022-10-21T01:42:58.678Z,98953.41
2022-10-21T01:44:04.994Z,98955.91
2022-10-21T01:45:14.328Z,98949.06
2022-10-21T01:46:20.647Z,98953.25
2022-10-21T01:47:29.228Z,98943.84
2022-10-21T01:48:34.649Z,98949.81
2022-10-21T01:49:40.840Z,98941.22
2022-10-21T01:50:46.187Z,98934.38
2022-10-21T01:51:49.950Z,98938.59
2022-10-21T01:52:56.039Z,98932.69
2022-10-21T01:54:03.483Z,98933.53
2022-10-21T01:55:08.988Z,98930.97
2022-10-21T01:56:13.701Z,98928.47
2022-10-21T01:57:17.426Z,98930.22
2022-10-21T01:58:24.729Z,98928.56
2022-10-21T01:59:29.743Z,98924.38
2022-10-21T02:00:35.334Z,98926.97
2022-10-21T02:01:39.506Z,98930.50
2022-10-21T02:02:48.004Z,98933.97
2022-10-21T02:03:55.543Z,98927.31
2022-10-21T02:04:59.962Z,98929.13
2022-10-21T02:06:02.628Z,98931.78
2022-10-21T02:07:06.628Z,98918.19
2022-10-21T02:08:09.790Z,98925.03
2022-10-21T02:09:13.627Z,98919.94
2022-10-21T02:10:16.880Z,98914.06
2022-10-21T02:11:20.988Z,98924.44
2022-10-21T02:12:24.407Z,98915.19
2022-10-21T02:13:32.516Z,98917.75
2022-10-21T02:14:37.516Z,98922.03
2022-10-21T02:15:43.500Z,98922.03
2022-10-21T02:16:48.681Z,98919.63
2022-10-21T02:17:58.498Z,98923.97
2022-10-21T02:19:01.250Z,98924.03
2022-10-21T02:20:09.498Z,98925.00
2022-10-21T02:21:16.741Z,98920.69
2022-10-21T02:22:23.699Z,98937.78
2022-10-21T02:23:30.828Z,98925.88
2022-10-21T02:24:38.737Z,98921.59
2022-10-21T02:25:43.337Z,98924.94
2022-10-21T02:26:47.137Z,98924.09
2022-10-21T02:27:49.866Z,98914.75
2022-10-21T02:28:54.767Z,98913.91
2022-10-21T02:29:59.675Z,98902.00
2022-10-21T02:31:12.416Z,98920.69
2022-10-21T02:32:23.227Z,98911.28
2022-10-21T02:33:35.170Z,98913.09
2022-10-21T02:34:49.032Z,98919.09
2022-10-21T02:35:57.191Z,98925.19
2022-10-21T02:37:04.690Z,98919.25
2022-10-21T02:38:13.609Z,98914.25
2022-10-21T02:39:20.690Z,98910.06
2022-10-21T02:40:27.317Z,98922.84
2022-10-21T02:41:30.709Z,98917.78
2022-10-21T02:42:37.269Z,98914.47
2022-10-21T02:43:43.169Z,98921.44
2022-10-21T02:44:46.868Z,98918.97
2022-10-21T02:45:49.659Z,98921.56
2022-10-21T02:46:53.928Z,98909.63
2022-10-21T02:47:56.640Z,98911.28
2022-10-21T02:49:01.849Z,98907.84
2022-10-21T02:50:05.189Z,98913.84
2022-10-21T02:51:09.559Z,98905.34
2022-10-21T02:52:12.529Z,98914.72
2022-10-21T02:53:16.350Z,98913.91
2022-10-21T02:54:19.027Z,98913.94
2022-10-21T02:55:22.780Z,98921.78
2022-10-21T02:56:26.759Z,98922.63
2022-10-21T02:57:30.600Z,98916.69
2022-10-21T02:58:33.198Z,98916.69
2022-10-21T02:59:36.919Z,98914.19
2022-10-21T03:00:39.664Z,98912.50
2022-10-21T03:01:43.398Z,98913.41
2022-10-21T03:02:46.084Z,98910.13
2022-10-21T03:03:49.858Z,98906.00
2022-10-21T03:04:53.938Z,98906.00
2022-10-21T03:05:57.689Z,98894.91
2022-10-21T03:07:00.408Z,98894.94
2022-10-21T03:08:04.129Z,98889.06
2022-10-21T03:09:06.996Z,98894.22
2022-10-21T03:10:10.977Z,98887.41
2022-10-21T03:11:13.678Z,98896.78
2022-10-21T03:12:17.380Z,98889.94
2022-10-21T03:13:20.129Z,98891.59
2022-10-21T03:14:23.939Z,98886.56
2022-10-21T03:15:27.178Z,98886.63
2022-10-21T03:16:30.921Z,98894.34
2022-10-21T03:17:33.670Z,98888.41
2022-10-21T03:18:37.586Z,98891.81
2022-10-21T03:19:40.280Z,98893.53
2022-10-21T03:20:45.598Z,98892.69
2022-10-21T03:21:48.338Z,98896.09
2022-10-21T03:22:52.135Z,98897.75
2022-10-21T03:23:54.860Z,98887.56
2022-10-21T03:24:58.568Z,98885.88
2022-10-21T03:26:01.260Z,98887.56
2022-10-21T03:27:05.251Z,98878.94
2022-10-21T03:28:08.021Z,98877.22
2022-10-21T03:29:12.159Z,98877.16
2022-10-21T03:30:14.870Z,98874.63
2022-10-21T03:31:18.620Z,98876.41
2022-10-21T03:32:21.320Z,98872.16
2022-10-21T03:33:25.105Z,98873.06
2022-10-21T03:34:27.737Z,98868.81
2022-10-21T03:35:31.456Z,98865.38
2022-10-21T03:36:36.628Z,98866.22
2022-10-21T03:37:39.438Z,98860.22
2022-10-21T03:38:43.168Z,98856.00
2022-10-21T03:39:45.838Z,98860.28
2022-10-21T03:40:51.640Z,98859.47
2022-10-21T03:41:54.399Z,98852.69
2022-10-21T03:42:58.257Z,98854.34
2022-10-21T03:44:01.158Z,98858.56
2022-10-21T03:45:05.009Z,98847.50
2022-10-21T03:46:07.916Z,98850.94
2022-10-21T03:47:11.720Z,98843.28
2022-10-21T03:48:14.658Z,98845.88
2022-10-21T03:49:21.307Z,98847.56
2022-10-21T03:50:26.757Z,98847.56
2022-10-21T03:51:29.763Z,98836.50
2022-10-21T03:52:35.056Z,98842.50
2022-10-21T03:53:43.394Z,98853.56
2022-10-21T03:54:47.587Z,98850.25
2022-10-21T03:55:55.683Z,98856.19
2022-10-21T03:57:00.330Z,98857.00
2022-10-21T03:58:03.091Z,98854.34
2022-10-21T03:59:06.922Z,98852.59
2022-10-21T04:00:10.629Z,98847.38
2022-10-21T04:01:17.269Z,98848.13
2022-10-21T04:02:19.942Z,98853.19
2022-10-21T04:03:23.836Z,98859.09
2022-10-21T04:04:26.497Z,98837.75
2022-10-21T04:05:30.278Z,98839.41
2022-10-21T04:06:33.014Z,98840.25
2022-10-21T04:07:38.307Z,98844.47
2022-10-21T04:08:41.086Z,98845.38
2022-10-21T04:09:44.859Z,98850.59
2022-10-21T04:10:48.250Z,98852.41
2022-10-21T04:11:52.069Z,98850.72
2022-10-21T04:12:54.749Z,98852.53
2022-10-21T04:13:58.468Z,98851.66
2022-10-21T04:15:01.121Z,98850.81
2022-10-21T04:16:07.428Z,98848.25
2022-10-21T04:17:10.097Z,98850.72
2022-10-21T04:18:13.930Z,98848.19
2022-10-21T04:19:18.747Z,98840.59
2022-10-21T04:20:22.706Z,98837.19
2022-10-21T04:21:25.441Z,98835.47
2022-10-21T04:22:29.210Z,98836.28
2022-10-21T04:23:33.378Z,98840.59
2022-10-21T04:24:37.153Z,98838.06
2022-10-21T04:25:39.850Z,98833.88
2022-10-21T04:26:43.860Z,98834.78
2022-10-21T04:27:46.550Z,98833.94
2022-10-21T04:28:50.368Z,98827.97
2022-10-21T04:29:53.056Z,98827.16
2022-10-21T04:30:56.797Z,98831.44
2022-10-21T04:31:59.511Z,98829.78
2022-10-21T04:33:03.351Z,98833.25
2022-10-21T04:34:06.075Z,98828.97
2022-10-21T04:35:10.079Z,98829.78
2022-10-21T04:36:12.740Z,98833.19
2022-10-21T04:37:16.488Z,98831.50
2022-10-21T04:38:19.159Z,98825.56
2022-10-21T04:39:24.329Z,98829.00
2022-10-21T04:40:27.161Z,98834.91
2022-10-21T04:41:30.867Z,98827.22
2022-10-21T04:42:33.528Z,98828.91
2022-10-21T04:43:38.806Z,98824.59
2022-10-21T04:44:41.486Z,98830.53
2022-10-21T04:45:45.269Z,98832.22
2022-10-21T04:46:48.017Z,98830.53
2022-10-21T04:47:51.749Z,98828.81
2022-10-21T04:48:54.517Z,98825.47
2022-10-21T04:49:58.267Z,98828.06
2022-10-21T04:51:00.968Z,98823.84
2022-10-21T04:52:04.872Z,98830.63
2022-10-21T04:53:07.708Z,98831.50
2022-10-21T04:54:13.578Z,98839.25
2022-10-21T04:55:17.858Z,98842.00
2022-10-21T04:56:21.531Z,98844.56
2022-10-21T04:57:24.247Z,98835.16
2022-10-21T04:58:28.081Z,98827.38
2022-10-21T04:59:31.749Z,98832.41
2022-10-21T05:00:34.515Z,98834.00
2022-10-21T05:01:38.229Z,98823.66
2022-10-21T05:02:41.333Z,98821.84
2022-10-21T05:03:45.968Z,98821.69
2022-10-21T05:04:48.691Z,98827.50
2022-10-21T05:05:53.114Z,98825.69
2022-10-21T05:06:55.757Z,98826.41
2022-10-21T05:07:59.560Z,98820.38
2022-10-21T05:09:02.259Z,98831.44
2022-10-21T05:10:06.834Z,98828.94
2022-10-21T05:11:12.067Z,98822.19
2022-10-21T05:12:15.831Z,98828.97
2022-10-21T05:13:18.571Z,98828.06
2022-10-21T05:14:22.931Z,98828.84
2022-10-21T05:15:26.299Z,98819.44
2022-10-21T05:16:30.131Z,98825.34
2022-10-21T05:17:32.962Z,98826.03
2022-10-21T05:18:36.908Z,98821.63
2022-10-21T05:19:39.693Z,98826.63
2022-10-21T05:20:43.722Z,98827.38
2022-10-21T05:21:47.962Z,98828.13
2022-10-21T05:22:52.089Z,98819.56
2022-10-21T05:23:55.770Z,98817.81
2022-10-21T05:24:58.507Z,98823.69
2022-10-21T05:26:02.429Z,98827.00
2022-10-21T05:27:06.706Z,98822.72
2022-10-21T05:28:10.798Z,98830.34
2022-10-21T05:29:13.741Z,98828.53
2022-10-21T05:30:17.589Z,98819.91
2022-10-21T05:31:20.519Z,98830.88
2022-10-21T05:32:24.609Z,98829.94
2022-10-21T05:33:27.360Z,98829.00
2022-10-21T05:34:31.110Z,98826.44
2022-10-21T05:35:33.978Z,98822.94
2022-10-21T05:36:37.829Z,98833.06
2022-10-21T05:37:40.799Z,98827.03
2022-10-21T05:38:44.967Z,98834.56
2022-10-21T05:39:47.909Z,98836.16
2022-10-21T05:40:51.829Z,98825.13
2022-10-21T05:41:55.663Z,98821.69
2022-10-21T05:42:59.885Z,98813.03
2022-10-21T05:44:03.568Z,98805.09
2022-10-21T05:45:07.874Z,98801.25
2022-10-21T05:46:11.838Z,98785.50
2022-10-21T05:47:14.950Z,98790.22
2022-10-21T05:48:19.567Z,98775.25
2022-10-21T05:49:23.530Z,98777.91
2022-10-21T05:50:26.301Z,98773.59
2022-10-21T05:51:30.161Z,98791.69
2022-10-21T05:52:32.871Z,98802.53
2022-10-21T05:53:36.690Z,98817.16
2022-10-21T05:54:39.523Z,98825.03
2022-10-21T05:55:43.351Z,98839.53
2022-10-21T05:56:48.348Z,98832.25
2022-10-21T05:58:57.649Z,98833.06
2022-10-21T06:00:00.369Z,98823.22
2022-10-21T06:01:04.482Z,98830.66
2022-10-21T06:02:07.713Z,98845.81
2022-10-21T06:03:11.608Z,98838.63
2022-10-21T06:04:15.532Z,98847.00
2022-10-21T06:05:18.417Z,98854.47
2022-10-21T06:06:22.220Z,98852.53
2022-10-21T06:07:25.018Z,98850.63
2022-10-21T06:08:29.905Z,98837.56
2022-10-21T06:09:32.728Z,98835.72
2022-10-21T06:10:36.724Z,98840.66
2022-10-21T06:11:39.598Z,98840.50
2022-10-21T06:12:43.407Z,98842.94
2022-10-21T06:13:46.371Z,98841.09
2022-10-21T06:14:51.672Z,98841.75
2022-10-21T06:15:54.488Z,98834.88
2022-10-21T06:16:58.571Z,98837.44
2022-10-21T06:18:01.498Z,98832.31
2022-10-21T06:19:05.402Z,98838.31
2022-10-21T06:20:09.058Z,98839.97
2022-10-21T06:21:13.248Z,98846.78
2022-10-21T06:22:16.128Z,98844.22
2022-10-21T06:23:20.000Z,98845.06
2022-10-21T06:24:24.622Z,98844.09
2022-10-21T06:25:27.586Z,98839.69
2022-10-21T06:26:33.352Z,98845.56
2022-10-21T06:27:39.435Z,98835.13
2022-10-21T06:28:44.644Z,98834.16
2022-10-21T06:29:47.469Z,98831.59
2022-10-21T06:30:52.930Z,98831.50
2022-10-21T06:31:55.618Z,98827.19
2022-10-21T06:32:59.431Z,98833.16
2022-10-21T06:34:03.189Z,98827.97
2022-10-21T06:35:06.394Z,98830.53
2022-10-21T06:36:10.379Z,98838.25
2022-10-21T06:37:14.157Z,98834.00
2022-10-21T06:38:17.359Z,98840.06
2022-10-21T06:39:21.180Z,98842.78
2022-10-21T06:40:23.948Z,98845.41
2022-10-21T06:41:27.707Z,98849.78
2022-10-21T06:42:31.567Z,98850.75
2022-10-21T06:43:34.559Z,98850.91
2022-10-21T06:44:38.371Z,98857.84
2022-10-21T06:45:41.248Z,98861.38
2022-10-21T06:46:46.428Z,98852.84
2022-10-21T06:47:49.189Z,98857.97
2022-10-21T06:48:53.058Z,98858.81
2022-10-21T06:49:55.999Z,98858.81
2022-10-21T06:51:00.770Z,98861.31
2022-10-21T06:52:03.480Z,98861.31
2022-10-21T06:53:07.875Z,98865.44
2022-10-21T06:54:11.872Z,98861.81
2022-10-21T06:55:14.916Z,98867.66
2022-10-21T06:56:20.161Z,98859.81
2022-10-21T06:57:24.067Z,98852.63
2022-10-21T06:58:26.938Z,98851.19
2022-10-21T06:59:30.809Z,98853.97
2022-10-21T07:00:33.562Z,98850.63
2022-10-21T07:01:48.403Z,98840.22
2022-10-21T07:03:02.981Z,98838.13
2022-10-21T07:04:07.032Z,98840.56
2022-10-21T07:05:11.618Z,98844.78
2022-10-21T07:06:14.868Z,98841.34
2022-10-21T07:07:18.980Z,98836.47
2022-10-21T07:08:22.566Z,98836.66
2022-10-21T07:09:38.336Z,98825.97
2022-10-21T07:10:45.283Z,98820.47
2022-10-21T07:11:49.139Z,98826.22
2022-10-21T07:12:52.920Z,98823.31
2022-10-21T07:13:55.934Z,98826.38
2022-10-21T07:15:00.266Z,98817.47
2022-10-21T07:16:04.882Z,98817.91
2022-10-21T07:17:08.900Z,98813.19
2022-10-21T07:18:13.147Z,98807.47
2022-10-21T07:19:16.976Z,98812.16
2022-10-21T07:20:20.790Z,98809.88
2022-10-21T07:21:25.440Z,98803.28
2022-10-21T07:22:29.219Z,98806.75
2022-10-21T07:23:31.981Z,98795.72
2022-10-21T07:24:36.202Z,98796.69
2022-10-21T07:25:39.098Z,98797.56
2022-10-21T07:26:42.868Z,98801.81
2022-10-21T07:27:48.107Z,98804.97
2022-10-21T07:28:52.640Z,98799.78
2022-10-21T07:29:56.427Z,98801.34
2022-10-21T07:30:59.229Z,98793.56
2022-10-21T07:32:03.040Z,98800.38
2022-10-21T07:33:05.878Z,98802.13
2022-10-21T07:34:13.100Z,98794.28
2022-10-21T07:35:15.930Z,98790.94
2022-10-21T07:36:21.635Z,98781.66
2022-10-21T07:37:24.460Z,98781.69
2022-10-21T07:38:28.380Z,98786.09
2022-10-21T07:39:32.851Z,98782.66
2022-10-21T07:40:40.751Z,98781.84
2022-10-21T07:41:46.572Z,98781.13
2022-10-21T07:42:50.366Z,98776.16
2022-10-21T07:43:54.648Z,98772.94
2022-10-21T07:45:00.139Z,98776.69
2022-10-21T07:46:06.806Z,98765.88
2022-10-21T07:47:11.055Z,98769.81
2022-10-21T07:48:13.748Z,98762.41
2022-10-21T07:49:20.161Z,98756.78
2022-10-21T07:50:22.995Z,98756.59
2022-10-21T07:51:30.331Z,98752.97
2022-10-21T07:52:37.116Z,98758.75
2022-10-21T07:53:45.565Z,98759.38
2022-10-21T07:54:49.370Z,98761.75
2022-10-21T07:56:02.640Z,98765.78
2022-10-21T07:57:06.475Z,98754.47
2022-10-21T07:58:09.280Z,98762.16
2022-10-21T07:59:14.118Z,98753.31
2022-10-21T08:00:17.928Z,98743.53
2022-10-21T08:01:21.722Z,98752.91
2022-10-21T08:02:25.998Z,98743.22
2022-10-21T08:03:29.432Z,98742.16
2022-10-21T08:04:34.665Z,98743.72
2022-10-21T08:05:42.181Z,98742.75
2022-10-21T08:06:46.945Z,98734.03
2022-10-21T08:07:49.821Z,98729.66
2022-10-21T08:08:53.643Z,98732.16
2022-10-21T08:09:57.882Z,98730.28
2022-10-21T08:11:01.025Z,98724.88
2022-10-21T08:12:05.393Z,98717.66
2022-10-21T08:13:08.342Z,98720.88
2022-10-21T08:14:12.832Z,98723.97
2022-10-21T08:15:16.839Z,98718.31
2022-10-21T08:16:19.821Z,98716.81
2022-10-21T08:17:23.630Z,98714.59
2022-10-21T08:18:26.650Z,98710.72
2022-10-21T08:19:30.720Z,98706.72
2022-10-21T08:20:34.931Z,98711.34
2022-10-21T08:21:39.327Z,98714.31
2022-10-21T08:22:43.049Z,98711.38
2022-10-21T08:23:46.812Z,98713.50
2022-10-21T08:24:50.641Z,98714.88
2022-10-21T08:25:55.297Z,98720.66
2022-10-21T08:26:59.919Z,98720.31
2022-10-21T08:28:03.388Z,98718.31
2022-10-21T08:29:07.278Z,98719.75
2022-10-21T08:30:10.929Z,98720.22
2022-10-21T08:31:16.838Z,98717.16
2022-10-21T08:32:20.699Z,98704.59
2022-10-21T08:33:23.660Z,98700.69
2022-10-21T08:34:27.810Z,98700.09
2022-10-21T08:35:33.968Z,98698.69
2022-10-21T08:36:39.766Z,98691.09
2022-10-21T08:37:43.444Z,98694.16
2022-10-21T08:38:47.738Z,98696.28
2022-10-21T08:39:50.678Z,98688.00
2022-10-21T08:40:55.794Z,98689.97
2022-10-21T08:42:05.227Z,98691.19
2022-10-21T08:43:10.242Z,98682.97
2022-10-21T08:44:21.443Z,98676.44
2022-10-21T08:45:30.837Z,98680.34
2022-10-21T08:46:39.481Z,98680.91
2022-10-21T08:47:46.538Z,98676.28
2022-10-21T08:48:52.043Z,98680.31
2022-10-21T08:50:01.652Z,98685.72
2022-10-21T08:51:06.795Z,98684.50
2022-10-21T08:52:15.487Z,98673.84
2022-10-21T08:53:22.442Z,98674.53
2022-10-21T08:54:31.119Z,98681.16
2022-10-21T08:55:36.760Z,98672.13
2022-10-21T08:56:39.594Z,98664.88
2022-10-21T08:57:43.590Z,98669.72
2022-10-21T08:58:48.910Z,98666.84
2022-10-21T08:59:51.581Z,98668.38
2022-10-21T09:00:58.098Z,98671.56
2022-10-21T09:02:06.158Z,98674.75
2022-10-21T09:03:18.126Z,98669.25
2022-10-21T09:04:28.687Z,98661.44
2022-10-21T09:05:42.986Z,98668.31
2022-10-21T09:06:50.311Z,98658.97
2022-10-21T09:08:02.573Z,98651.97
2022-10-21T09:09:15.326Z,98654.44
2022-10-21T09:10:21.552Z,98649.13
2022-10-21T09:11:31.007Z,98653.09
2022-10-21T09:12:39.340Z,98655.22
2022-10-21T09:14:15.235Z,98658.84
2022-10-21T09:15:22.975Z,98661.91
2022-10-21T09:16:33.498Z,98652.84
2022-10-21T09:17:52.661Z,98650.81
2022-10-21T09:19:03.403Z,98650.97
2022-10-21T09:20:18.478Z,98647.38
2022-10-21T09:21:28.210Z,98645.75
2022-10-21T09:22:43.384Z,98646.56
2022-10-21T09:23:55.493Z,98646.69
2022-10-21T09:25:01.637Z,98645.31
2022-10-21T09:26:09.699Z,98642.94
2022-10-21T09:27:13.431Z,98631.09
2022-10-21T09:28:17.825Z,98635.63
2022-10-21T09:29:25.950Z,98633.25
2022-10-21T09:30:29.680Z,98634.19
2022-10-21T09:31:32.337Z,98638.75
2022-10-21T09:32:39.431Z,98627.59
2022-10-21T09:33:47.498Z,98635.41
2022-10-21T09:34:56.369Z,98634.59
2022-10-21T09:36:04.992Z,98631.84
2022-10-21T09:37:13.962Z,98633.50
2022-10-21T09:38:22.450Z,98623.06
2022-10-21T09:39:33.488Z,98624.72
2022-10-21T09:40:37.326Z,98616.06
2022-10-21T09:41:43.729Z,98616.91
2022-10-21T09:42:50.718Z,98615.13
2022-10-21T09:43:56.378Z,98614.00
2022-10-21T09:44:59.309Z,98612.00
2022-10-21T09:46:03.036Z,98610.94
2022-10-21T09:47:17.970Z,98613.13
2022-10-21T09:48:30.150Z,98605.19
2022-10-21T09:50:02.152Z,98606.69
2022-10-21T09:51:02.579Z,98606.59
2022-10-21T09:52:07.516Z,98603.69
2022-10-21T09:53:16.509Z,98601.53
2022-10-21T09:54:23.078Z,98608.38
2022-10-21T09:55:27.954Z,98600.44
2022-10-21T09:56:37.475Z,98578.59
2022-10-21T09:57:48.508Z,98585.31
2022-10-21T09:58:57.663Z,98582.47
2022-10-21T10:00:08.274Z,98577.91
2022-10-21T10:01:18.961Z,98579.56
2022-10-21T10:02:29.257Z,98575.06
2022-10-21T10:03:33.822Z,98574.09
2022-10-21T10:04:37.757Z,98576.56
2022-10-21T10:05:44.167Z,98574.66
2022-10-21T10:06:47.958Z,98572.72
2022-10-21T10:07:50.641Z,98567.25
2022-10-21T10:09:07.631Z,98570.38
2022-10-21T10:10:32.990Z,98572.75
2022-10-21T10:11:50.473Z,98564.09
2022-10-21T10:12:57.249Z,98565.06
2022-10-21T10:14:22.537Z,98562.03
2022-10-21T10:15:33.900Z,98572.22
2022-10-21T10:16:37.912Z,98565.06
2022-10-21T10:17:40.699Z,98561.22
2022-10-21T10:18:44.700Z,98563.72
2022-10-21T10:20:23.534Z,98568.38
2022-10-21T10:21:26.239Z,98561.13
2022-10-21T10:22:29.927Z,98563.44
2022-10-21T10:23:44.560Z,98566.63
2022-10-21T10:24:47.272Z,98561.25
2022-10-21T10:25:53.538Z,98565.91
2022-10-21T10:26:56.218Z,98562.38
2022-10-21T10:28:01.491Z,98559.59
2022-10-21T10:29:11.308Z,98563.72
2022-10-21T10:30:14.706Z,98564.44
2022-10-21T10:31:25.442Z,98558.22
2022-10-21T10:32:32.923Z,98565.09
2022-10-21T10:33:36.488Z,98560.53
2022-10-21T10:34:51.640Z,98560.97
2022-10-21T10:35:57.605Z,98566.59
2022-10-21T10:37:03.930Z,98558.50
2022-10-21T10:38:07.787Z,98563.56
2022-10-21T10:39:21.430Z,98551.47
2022-10-21T10:40:26.307Z,98551.31
2022-10-21T10:41:37.908Z,98551.88
2022-10-21T10:42:46.684Z,98549.13
2022-10-21T10:43:51.399Z,98554.22
2022-10-21T10:44:57.127Z,98546.22
2022-10-21T10:46:01.925Z,98557.38
2022-10-21T10:47:07.558Z,98552.53
2022-10-21T10:48:21.870Z,98552.28
2022-10-21T10:49:26.308Z,98554.63
2022-10-21T10:50:42.751Z,98554.88
2022-10-21T10:51:48.718Z,98558.72
2022-10-21T10:53:16.169Z,98547.84
2022-10-21T10:54:22.880Z,98548.41
2022-10-21T10:55:25.600Z,98550.59
2022-10-21T10:56:30.799Z,98550.16
2022-10-21T10:57:44.359Z,98554.81
2022-10-21T10:59:17.639Z,98542.53
2022-10-21T11:00:21.953Z,98545.53
2022-10-21T11:01:28.648Z,98542.22
2022-10-21T11:02:37.381Z,98526.09
2022-10-21T11:03:45.092Z,98531.72
2022-10-21T11:05:01.698Z,98523.53
2022-10-21T11:06:11.150Z,98514.97
2022-10-21T11:07:16.638Z,98518.81
2022-10-21T11:08:24.549Z,98525.91
2022-10-21T11:09:27.872Z,98519.28
2022-10-21T11:10:36.273Z,98517.06
2022-10-21T11:11:42.417Z,98515.63
2022-10-21T11:12:46.520Z,98513.41
2022-10-21T11:13:50.533Z,98510.31
2022-10-21T11:14:55.664Z,98515.09
2022-10-21T11:16:21.030Z,98514.00
2022-10-21T11:17:29.817Z,98510.56
2022-10-21T11:18:36.907Z,98517.97
2022-10-21T11:19:47.860Z,98514.91
2022-10-21T11:20:58.488Z,98517.75
2022-10-21T11:22:10.201Z,98510.09
2022-10-21T11:23:23.777Z,98511.13
2022-10-21T11:24:43.079Z,98515.81
2022-10-21T11:25:50.408Z,98518.66
2022-10-21T11:26:57.568Z,98506.56
2022-10-21T11:28:12.878Z,98509.56
2022-10-21T11:29:37.429Z,98510.75
2022-10-21T11:30:55.250Z,98494.88
2022-10-21T11:32:11.942Z,98503.69
2022-10-21T11:33:22.633Z,98502.06
2022-10-21T11:34:33.227Z,98494.88
2022-10-21T11:35:47.807Z,98495.81
2022-10-21T11:36:59.709Z,98494.88
2022-10-21T11:38:38.690Z,98492.91
2022-10-21T11:39:45.040Z,98498.16
2022-10-21T11:40:50.450Z,98496.88
2022-10-21T11:41:58.368Z,98497.25
2022-10-21T11:43:12.887Z,98487.09
2022-10-21T11:44:21.333Z,98493.38
2022-10-21T11:45:39.152Z,98485.19
2022-10-21T11:46:51.634Z,98490.94
2022-10-21T11:47:58.848Z,98490.47
2022-10-21T11:49:11.038Z,98482.00
2022-10-21T11:51:41.240Z,98484.00
2022-10-21T11:52:51.198Z,98478.59
2022-10-21T11:54:07.202Z,98482.72
2022-10-21T11:55:29.479Z,98471.88
2022-10-21T11:56:40.163Z,98469.25
2022-10-21T11:57:51.478Z,98465.28
2022-10-21T11:59:04.947Z,98462.66
2022-10-21T12:00:13.211Z,98467.25
2022-10-21T12:01:30.668Z,98464.28
2022-10-21T12:02:43.652Z,98472.78
2022-10-21T12:04:05.118Z,98473.09
2022-10-21T12:05:13.161Z,98472.44
2022-10-21T12:06:27.640Z,98469.00
2022-10-21T12:07:43.001Z,98465.53
2022-10-21T12:08:52.618Z,98462.91
2022-10-21T12:10:00.356Z,98441.59
2022-10-21T12:11:06.153Z,98448.19
2022-10-21T12:12:12.888Z,98435.88
2022-10-21T12:13:21.579Z,98436.41
2022-10-21T12:14:31.616Z,98443.97
2022-10-21T12:15:41.460Z,98436.81
2022-10-21T12:16:45.122Z,98432.41
2022-10-21T12:17:50.029Z,98431.44
2022-10-21T12:18:56.012Z,98429.66
2022-10-21T12:20:02.270Z,98428.19
2022-10-21T12:21:05.273Z,98426.09
2022-10-21T12:22:12.465Z,98429.06
2022-10-21T12:23:19.000Z,98430.38
2022-10-21T12:24:27.590Z,98432.34
2022-10-21T12:25:38.491Z,98424.47
2022-10-21T12:26:46.093Z,98432.19
2022-10-21T12:27:53.618Z,98433.03
2022-10-21T12:28:59.316Z,98431.38
2022-10-21T12:30:13.130Z,98426.44
2022-10-21T12:31:28.722Z,98418.88
2022-10-21T12:32:38.880Z,98414.13
2022-10-21T12:33:45.089Z,98411.81
2022-10-21T12:34:47.919Z,98405.41
2022-10-21T12:35:53.426Z,98406.91
2022-10-21T12:36:57.211Z,98405.94
2022-10-21T12:38:22.873Z,98397.88
2022-10-21T12:39:51.687Z,98398.88
2022-10-21T12:41:23.243Z,98384.88
2022-10-21T12:42:30.005Z,98390.97
2022-10-21T12:43:32.764Z,98382.91
2022-10-21T12:44:39.085Z,98386.84
2022-10-21T12:45:43.854Z,98395.66
2022-10-21T12:46:49.979Z,98397.47
2022-10-21T12:47:53.398Z,98393.22
2022-10-21T12:48:57.542Z,98395.56
2022-10-21T12:50:24.499Z,98397.69
2022-10-21T12:51:29.418Z,98396.84
2022-10-21T12:52:38.411Z,98397.69
2022-10-21T12:53:43.058Z,98397.34
2022-10-21T12:54:57.177Z,98403.78
2022-10-21T12:56:00.999Z,98399.66
2022-10-21T12:57:06.678Z,98401.63
2022-10-21T12:58:23.338Z,98392.94
2022-10-21T12:59:31.080Z,98398.53
2022-10-21T13:00:57.729Z,98394.72
2022-10-21T13:02:36.028Z,98406.09
2022-10-21T13:03:55.277Z,98400.66